Sagehen Creek Weather observations

Data are for observation ending at time listed.
 Day   Time    Ave.   Ave.  Ave.  Vector   Max.   Stn.    Total    Solar   Ave.  
  of    of     Air    Rel.  Wind   Wind    Wind   Baro.  Precip.   Rad.    Soil  
Year   Day     Temp.  Hum.  Speed  Dir.    Gust   Pres.                    Temp. 
2014   (PST)    F      %     mph   deg.    mph     mb.     in.     W/m2     F   
------------------------------------------------------------------------------
 233   18:00   64.7    38    1.6   256      3.6   837.0   12.33      18    999.0
 233   18:10   63.9    40    1.5   270      3.0   837.2   12.33      18    999.0
 233   18:20   63.1    41    1.4   270      3.4   837.0   12.33      12    999.0
 233   18:30   61.8    44    0.8   225      2.2   836.9   12.33       8    999.0
 233   18:40   60.5    46    0.4   261      0.8   836.8   12.33       5    999.0
 233   18:50   59.6    49    0.2   247      0.9   836.9   12.33       3    999.0
 233   19:00   58.0    51    0.0   240      0.4   836.9   12.33       1    999.0
 233   19:10   56.6    54    0.0   237      0.1   837.0   12.33       0    999.0
 233   19:20   55.2    55    0.0   247      0.4   837.1   12.33       0    999.0
 233   19:30   54.0    60    0.1   217      0.8   837.2   12.33       0    999.0
 233   19:40   53.0    60    0.2   227      0.8   837.6   12.33       0    999.0
 233   19:50   52.2    62    0.1   236      0.7   837.7   12.33       0    999.0
 233   20:00   51.4    63    0.4   242      1.2   837.8   12.33       0    999.0
 233   20:10   50.7    65    0.2   196      1.2   837.5   12.33       0    999.0
 233   20:20   49.9    66    0.1   253      0.6   837.5   12.33       0    999.0
 233   20:30   49.4    67    0.4   252      1.1   837.5   12.33       0    999.0
 233   20:40   48.5    70    0.0   243      0.5   837.8   12.33       0    999.0
 233   20:50   47.9    69    0.0    90      0.4   837.5   12.33       0    999.0
 233   21:00   47.3    70    0.0     0      0.0   837.3   12.33       0    999.0
 233   21:10   46.8    72    0.0   242      0.8   837.8   12.33       0    999.0
 233   21:20   46.3    74    0.3   278      1.1   837.5   12.33       0    999.0
 233   21:30   46.0    74    0.2   221      0.7   837.3   12.33       0    999.0
 233   21:40   45.6    74    0.3   228      1.3   837.7   12.33       0    999.0
 233   21:50   45.0    76    0.1   255      0.7   837.5   12.33       0    999.0
 233   22:00   44.6    76    0.3   246      0.9   837.3   12.34       0    999.0
 233   22:10   44.1    77    0.3   252      1.0   837.6   12.33       0    999.0
 233   22:20   43.6    77    0.4   255      0.9   837.5   12.33       0    999.0
 233   22:30   43.3    78    0.3   252      1.3   837.4   12.33       0    999.0
 233   22:40   42.8    79    0.3   258      1.0   837.5   12.33       0    999.0
 233   22:50   42.6    78    0.5   246      1.0   837.6   12.33       0    999.0
 233   23:00   42.3    78    0.5   247      0.8   837.6   12.33       0    999.0
 233   23:10   42.0    78    0.6   246      1.2   837.1   12.33       0    999.0
 233   23:20   41.7    78    0.6   254      1.1   837.3   12.33       0    999.0
 233   23:30   41.3    78    0.3   266      0.9   837.4   12.33       0    999.0
 233   23:40   41.0    77    0.5   257      1.1   837.2   12.34       0    999.0
 233   23:50   40.8    78    0.4   263      1.2   837.2   12.33       0    999.0
 234    0:00   40.4    78    0.5   258      1.1   837.1   12.34       0    999.0
 234    0:10   40.1    79    0.3   254      1.0   837.4   12.34       0    999.0
 234    0:20   39.9    78    0.7   263      1.5   837.2   12.33       0    999.0
 234    0:30   39.7    79    0.5   259      1.3   837.1   12.34       0    999.0
 234    0:40   39.5    79    0.7   263      1.4   837.0   12.34       0    999.0
 234    0:50   39.3    79    0.6   260      1.3   837.1   12.34       0    999.0
 234    1:00   39.1    80    0.8   252      1.5   837.1   12.34       0    999.0
 234    1:10   38.9    81    0.9   259      1.6   836.9   12.34       0    999.0
 234    1:20   38.9    81    1.4   270      2.7   836.9   12.34       0    999.0
 234    1:30   39.2    80    1.2   268      3.8   836.9   12.34       0    999.0
 234    1:40   39.3    80    1.2   266      3.1   837.2   12.34       0    999.0
 234    1:50   39.5    80    1.3   266      3.0   837.0   12.34       0    999.0
 234    2:00   39.3    81    1.0   265      2.7   836.8   12.34       0    999.0
 234    2:10   39.4    80    0.5   285      2.4   836.8   12.34       0    999.0
 234    2:20   39.2    81    0.5   261      1.4   836.9   12.34       0    999.0
 234    2:30   38.9    81    0.9   314      2.2   837.0   12.34       0    999.0
 234    2:40   38.8    82    0.7   271      2.2   836.8   12.34       0    999.0
 234    2:50   38.5    82    1.0   287      2.2   836.7   12.34       0    999.0
 234    3:00   38.3    83    0.9   318      4.7   836.6   12.34       0    999.0
 234    3:10   38.2    83    1.0   344      2.9   836.6   12.34       0    999.0
 234    3:20   38.1    83    0.9   286      2.7   836.4   12.34       0    999.0
 234    3:30   37.8    84    0.7   294      1.9   836.3   12.34       0    999.0
 234    3:40   37.6    84    1.0   241      3.3   836.2   12.34       0    999.0
 234    3:50   37.4    85    1.0     4      5.0   836.3   12.34       0    999.0
 234    4:00   37.5    85    1.2    48      4.3   836.4   12.34       0    999.0
 234    4:10   38.1    84    1.9   344      4.1   836.1   12.34       0    999.0
 234    4:20   38.7    82    1.7    24      5.0   836.0   12.34       0    999.0
 234    4:30   38.8    81    1.4    26      6.2   836.0   12.34       0    999.0
 234    4:40   38.9    81    0.8   249      2.0   836.4   12.34       0    999.0
 234    4:50   39.1    81    0.8   300      2.9   836.3   12.34       0    999.0
 234    5:00   38.8    82    0.9   121      3.5   836.1   12.34       0    999.0
 234    5:10   38.6    82    1.0   340      3.0   836.0   12.34       0    999.0
 234    5:20   39.6    81    1.8   266      5.8   836.3   12.34       2    999.0
 234    5:30   42.2    76    2.1   272      6.4   836.5   12.34       4    999.0
 234    5:40   43.6    72    2.1   286      4.3   836.3   12.34       7    999.0
 234    5:50   45.9    66    1.5   274      2.8   836.0   12.34      10    999.0
 234    6:00   47.8    62    1.7   286      5.0   835.8   12.34      49    999.0
 234    6:10   49.6    60    1.3   274      4.3   836.4   12.34      98    999.0
 234    6:20   51.8    57    1.3   278      3.3   836.2   12.34     132    999.0
 234    6:30   54.0    53    1.7   256      4.2   836.1   12.34     164    999.0
 234    6:40   56.2    48    1.8   226      7.1   836.3   12.34     196    999.0
 234    6:50   57.5    46    2.0   273      5.7   836.1   12.34     228    999.0
 234    7:00   58.6    43    2.8   260      6.3   836.0   12.34     261    999.0
 234    7:10   59.5    41    3.1   266     10.4   836.4   12.34     295    999.0
 234    7:20   60.1    39    3.0   263     10.0   836.2   12.34     328    999.0
 234    7:30   60.7    38    2.7   275      7.3   836.1   12.34     362    999.0
 234    7:40   61.1    37    4.0   272      9.5   835.9   12.34     395    999.0
 234    7:50   61.4    35    5.1   280      9.6   835.8   12.33     427    999.0
 234    8:00   61.8    34    4.7   275     12.8   835.7   12.33     459    999.0
 234    8:10   62.2    34    5.0   278     19.5   835.9   12.33     490    999.0
 234    8:20   62.4    34    5.4   273     12.6   835.8   12.33     520    999.0
 234    8:30   62.9    33    4.9   247     10.3   835.7   12.33     550    999.0
 234    8:40   63.3    34    4.0   232     11.9   835.6   12.33     578    999.0
 234    8:50   64.2    33    3.3   233     10.0   835.5   12.33     606    999.0
 234    9:00   65.1    32    3.2   278      7.4   835.4   12.33     633    999.0
 234    9:10   66.1    31    2.6   290     11.5   835.9   12.33     660    999.0
 234    9:20   65.6    32    3.5   264     12.8   835.7   12.33     685    999.0
 234    9:30   66.5    32    3.6   209      7.2   835.4   12.33     708    999.0
 234    9:40   66.1    32    3.4   224     10.3   835.9   12.33     732    999.0
 234    9:50   66.1    32    3.7   199      8.7   835.7   12.33     749    999.0
 234   10:00   67.2    32    3.0    45      7.6   835.5   12.33     765    999.0
 234   10:10   67.7    31    3.9   332     13.2   835.9   12.33     783    999.0
 234   10:20   68.1    30    3.6   327      7.6   835.7   12.33     800    999.0
 234   10:30   68.3    31    3.3    84      8.5   835.6   12.33     814    999.0
 234   10:40   69.2    30    3.0   266      7.4   835.7   12.33     829    999.0
 234   10:50   69.4    30    3.5   226     10.4   835.7   12.33     842    999.0
 234   11:00   50.6    14    4.9   333      9.1   139.3   12.32     860    999.0
 234   11:10   69.5    30    3.5   249      8.7   835.6   12.32     830    999.0
 234   11:20   69.7    30    3.4   222      8.1   835.6   12.32     875    999.0
 234   11:30   70.2    30    4.1   175     10.7   835.6   12.32     880    999.0
 234   11:40   70.4    30    3.8   233      9.2   835.4   12.32     890    999.0
 234   11:50   69.9    30    4.0   246     12.4   835.6   12.32     895    999.0
 234   12:00   70.2    29    3.6   234      8.8   835.7   12.32     896    999.0
 234   12:10   70.2    29    4.7   243     16.0   835.1   12.32     900    999.0
 234   12:20   69.9    30    4.3   238      9.4   835.3   12.32     892    999.0
 234   12:30   70.6    30    3.3   243      9.7   835.6   12.32     883    999.0
 234   12:40   70.9    28    3.1   232      7.3   835.6   12.32     884    999.0
 234   12:50   70.3    29    4.1   222     10.2   835.3   12.32     883    999.0
 234   13:00   70.8    29    3.2   200      9.5   835.1   12.32     872    999.0
 234   13:10   70.9    28    3.6   250      7.4   835.6   12.32     872    999.0
 234   13:20   70.5    29    3.0   215      9.3   835.5   12.32     856    999.0
 234   13:30   71.3    28    3.8   242     13.0   835.4   12.32     849    999.0
 234   13:40   70.5    28    4.5   232     10.0   834.9   12.32     837    999.0
 234   13:50   69.9    29    4.4   240     10.0   835.1   12.32     820    999.0
 234   14:00   70.2    30    4.9   266     11.9   835.3   12.32     807    999.0
 234   14:10   69.7    30    4.9   238     12.7   835.0   12.32     794    999.0
 234   14:20   70.1    31    4.4   262     11.2   835.0   12.32     772    999.0
 234   14:30   70.1    30    4.1   220      7.5   835.1   12.32     756    999.0
 234   14:40   70.0    29    4.0   263     12.6   835.2   12.32     733    999.0
 234   14:50   69.8    30    4.6   238     10.2   835.0   12.32     712    999.0
 234   15:00   69.7    29    3.4   238     12.2   834.8   12.32     686    999.0
 234   15:10   69.9    29    3.4   246      9.4   835.3   12.32     664    999.0
 234   15:20   70.2    29    3.0   250     10.2   835.4   12.32     637    999.0
 234   15:30   69.9    28    2.7   235      8.2   835.5   12.32     611    999.0
 234   15:40   69.9    29    2.8   242      7.9   835.3   12.32     580    999.0
 234   15:50   69.7    28    2.5   240      8.0   835.2   12.32     554    999.0
 234   16:00   69.3    28    2.5   166      6.5   835.0   12.32     522    999.0
 234   16:10   68.7    28    3.7   227      8.4   835.5   12.33     493    999.0
 234   16:20   69.0    28    2.4   341      7.5   835.3   12.33     463    999.0
 234   16:30   68.6    29    2.1   166      5.0   835.2   12.33     428    999.0
 234   16:40   68.1    30    2.7   279      5.8   835.7   12.33     395    999.0
 234   16:50   69.0    29    1.3   312      3.9   835.6   12.33     364    999.0
 234   17:00   68.8    28    2.1   291      4.8   835.4   12.33     329    999.0
 234   17:10   67.1    28    2.8   233      6.8   835.9   12.33     294    999.0
 234   17:20   66.2    30    1.7   247      5.2   835.6   12.33     261    999.0
 234   17:30   64.6    31    3.6   248     10.5   835.5   12.33     101    999.0
 234   17:40   63.6    32    2.0   236      4.6   835.9   12.33     107    999.0
 234   17:50   62.6    34    2.3   235      5.4   835.9   12.33      18    999.0

Return to Sagehen Creek graphs page.


Western Regional Climate Center,wrcc@dri.edu